Terminal Aerodrome Forecast
Issued by NWS Mt. Holly, NJ

Home | Current Version | Previous Version | Text Only | Print | Product List | Glossary On
Versions: 1 2 3 4 5 6 7 8 9 10 11 12 13 14 15 16
519
FTUS41 KPHI 251128
TAFTTN
TAF
KTTN 251128Z 2512/2612 24004KT P6SM VCSH BKN120
     FM251500 VRB03KT P6SM OVC050
     FM252100 06006KT P6SM OVC025
     FM260000 08008KT 4SM BR OVC015
     FM260600 09008KT P6SM OVC006
     FM260900 09006KT P6SM OVC012=

USA.gov is the U.S. government's official web portal to all federal, state and local government web resources and services.